sensor_id;sensor_type;location;lat;lon;timestamp;temperature;humidity
14099;DHT22;7126;48.458;7.930;2023-04-05T00:01:31;4.80;99.90
14099;DHT22;7126;48.458;7.930;2023-04-05T00:03:58;4.80;99.90
14099;DHT22;7126;48.458;7.930;2023-04-05T00:06:28;4.80;99.90
14099;DHT22;7126;48.458;7.930;2023-04-05T00:08:54;4.80;99.90
14099;DHT22;7126;48.458;7.930;2023-04-05T00:11:21;4.80;99.90
14099;DHT22;7126;48.458;7.930;2023-04-05T00:13:50;4.80;99.90
14099;DHT22;7126;48.458;7.930;2023-04-05T00:16:16;4.70;99.90
14099;DHT22;7126;48.458;7.930;2023-04-05T00:18:42;4.60;99.90
14099;DHT22;7126;48.458;7.930;2023-04-05T00:21:16;4.40;99.90
14099;DHT22;7126;48.458;7.930;2023-04-05T00:23:42;4.40;99.90
14099;DHT22;7126;48.458;7.930;2023-04-05T00:26:12;4.50;99.90
14099;DHT22;7126;48.458;7.930;2023-04-05T00:28:38;4.50;99.90
14099;DHT22;7126;48.458;7.930;2023-04-05T00:31:04;4.40;99.90
14099;DHT22;7126;48.458;7.930;2023-04-05T00:33:30;4.30;99.90
14099;DHT22;7126;48.458;7.930;2023-04-05T00:35:56;4.20;99.90
14099;DHT22;7126;48.458;7.930;2023-04-05T00:38:21;4.30;99.90
14099;DHT22;7126;48.458;7.930;2023-04-05T00:40:47;4.30;99.90
14099;DHT22;7126;48.458;7.930;2023-04-05T00:43:13;4.20;99.90
14099;DHT22;7126;48.458;7.930;2023-04-05T00:45:38;4.30;99.90
14099;DHT22;7126;48.458;7.930;2023-04-05T00:48:04;4.30;99.90
14099;DHT22;7126;48.458;7.930;2023-04-05T00:50:30;4.30;99.90
14099;DHT22;7126;48.458;7.930;2023-04-05T00:52:57;4.30;99.90
14099;DHT22;7126;48.458;7.930;2023-04-05T00:55:24;4.30;99.90
14099;DHT22;7126;48.458;7.930;2023-04-05T00:57:52;4.30;99.90
14099;DHT22;7126;48.458;7.930;2023-04-05T01:00:19;4.10;99.90
14099;DHT22;7126;48.458;7.930;2023-04-05T01:02:51;4.20;99.90
14099;DHT22;7126;48.458;7.930;2023-04-05T01:05:37;4.20;99.90
14099;DHT22;7126;48.458;7.930;2023-04-05T01:08:12;4.20;99.90
14099;DHT22;7126;48.458;7.930;2023-04-05T01:10:43;4.10;99.90
14099;DHT22;7126;48.458;7.930;2023-04-05T01:13:08;3.90;99.90
14099;DHT22;7126;48.458;7.930;2023-04-05T01:15:34;3.80;99.90
14099;DHT22;7126;48.458;7.930;2023-04-05T01:18:00;3.80;99.90
14099;DHT22;7126;48.458;7.930;2023-04-05T01:20:30;3.90;99.90
14099;DHT22;7126;48.458;7.930;2023-04-05T01:23:26;3.90;99.90
14099;DHT22;7126;48.458;7.930;2023-04-05T01:26:22;4.00;99.90
14099;DHT22;7126;48.458;7.930;2023-04-05T01:34:40;3.80;99.90
14099;DHT22;7126;48.458;7.930;2023-04-05T01:37:11;3.80;99.90
14099;DHT22;7126;48.458;7.930;2023-04-05T01:39:39;3.70;99.90
14099;DHT22;7126;48.458;7.930;2023-04-05T01:42:05;3.70;99.90
14099;DHT22;7126;48.458;7.930;2023-04-05T01:44:30;3.70;99.90
14099;DHT22;7126;48.458;7.930;2023-04-05T01:46:56;3.80;99.90
14099;DHT22;7126;48.458;7.930;2023-04-05T01:49:22;3.80;99.90
14099;DHT22;7126;48.458;7.930;2023-04-05T01:51:48;3.80;99.90
14099;DHT22;7126;48.458;7.930;2023-04-05T01:54:14;3.80;99.90
14099;DHT22;7126;48.458;7.930;2023-04-05T01:56:40;3.80;99.90
14099;DHT22;7126;48.458;7.930;2023-04-05T01:59:05;3.80;99.90
14099;DHT22;7126;48.458;7.930;2023-04-05T02:01:31;3.70;99.90
14099;DHT22;7126;48.458;7.930;2023-04-05T02:03:57;3.70;99.90
14099;DHT22;7126;48.458;7.930;2023-04-05T02:06:22;3.70;99.90
14099;DHT22;7126;48.458;7.930;2023-04-05T02:08:48;3.70;99.90
14099;DHT22;7126;48.458;7.930;2023-04-05T02:11:13;3.80;99.90
14099;DHT22;7126;48.458;7.930;2023-04-05T02:13:39;3.80;99.90
14099;DHT22;7126;48.458;7.930;2023-04-05T02:16:05;3.70;99.90
14099;DHT22;7126;48.458;7.930;2023-04-05T02:18:31;3.70;99.90
14099;DHT22;7126;48.458;7.930;2023-04-05T02:21:04;3.70;99.90
14099;DHT22;7126;48.458;7.930;2023-04-05T02:23:31;3.70;99.90
14099;DHT22;7126;48.458;7.930;2023-04-05T02:25:57;3.70;99.90
14099;DHT22;7126;48.458;7.930;2023-04-05T02:28:23;3.60;99.90
14099;DHT22;7126;48.458;7.930;2023-04-05T02:30:48;3.60;99.90
14099;DHT22;7126;48.458;7.930;2023-04-05T02:33:14;3.50;99.90
14099;DHT22;7126;48.458;7.930;2023-04-05T02:35:40;3.40;99.90
14099;DHT22;7126;48.458;7.930;2023-04-05T02:38:06;3.40;99.90
14099;DHT22;7126;48.458;7.930;2023-04-05T02:40:33;3.30;99.90
14099;DHT22;7126;48.458;7.930;2023-04-05T02:42:58;3.30;99.90
14099;DHT22;7126;48.458;7.930;2023-04-05T02:45:24;3.30;99.90
14099;DHT22;7126;48.458;7.930;2023-04-05T02:47:52;3.20;99.90
14099;DHT22;7126;48.458;7.930;2023-04-05T02:50:18;3.10;99.90
14099;DHT22;7126;48.458;7.930;2023-04-05T02:52:45;3.10;99.90
14099;DHT22;7126;48.458;7.930;2023-04-05T02:55:12;3.00;99.90
14099;DHT22;7126;48.458;7.930;2023-04-05T02:57:37;2.90;99.90
14099;DHT22;7126;48.458;7.930;2023-04-05T03:00:04;2.90;99.90
14099;DHT22;7126;48.458;7.930;2023-04-05T03:02:30;2.90;99.90
14099;DHT22;7126;48.458;7.930;2023-04-05T03:04:55;2.80;99.90
14099;DHT22;7126;48.458;7.930;2023-04-05T03:07:21;2.80;99.90
14099;DHT22;7126;48.458;7.930;2023-04-05T03:09:50;2.80;99.90
14099;DHT22;7126;48.458;7.930;2023-04-05T03:12:15;2.80;99.90
14099;DHT22;7126;48.458;7.930;2023-04-05T03:14:41;2.70;99.90
14099;DHT22;7126;48.458;7.930;2023-04-05T03:17:07;2.70;99.90
14099;DHT22;7126;48.458;7.930;2023-04-05T03:19:32;2.70;99.90
14099;DHT22;7126;48.458;7.930;2023-04-05T03:21:58;2.80;99.90
14099;DHT22;7126;48.458;7.930;2023-04-05T03:24:24;2.80;99.90
14099;DHT22;7126;48.458;7.930;2023-04-05T03:26:49;2.70;99.90
14099;DHT22;7126;48.458;7.930;2023-04-05T03:29:16;2.80;99.90
14099;DHT22;7126;48.458;7.930;2023-04-05T03:31:42;2.80;99.90
14099;DHT22;7126;48.458;7.930;2023-04-05T03:34:07;2.80;99.90
14099;DHT22;7126;48.458;7.930;2023-04-05T03:36:34;2.80;99.90
14099;DHT22;7126;48.458;7.930;2023-04-05T03:39:10;2.90;99.90
14099;DHT22;7126;48.458;7.930;2023-04-05T03:41:37;2.90;99.90
14099;DHT22;7126;48.458;7.930;2023-04-05T03:44:03;3.00;99.90
14099;DHT22;7126;48.458;7.930;2023-04-05T03:46:29;3.10;99.90
14099;DHT22;7126;48.458;7.930;2023-04-05T03:48:56;3.20;99.90
14099;DHT22;7126;48.458;7.930;2023-04-05T03:51:22;3.20;99.90
14099;DHT22;7126;48.458;7.930;2023-04-05T03:53:49;3.20;99.90
14099;DHT22;7126;48.458;7.930;2023-04-05T03:56:15;3.30;99.90
14099;DHT22;7126;48.458;7.930;2023-04-05T03:58:40;3.20;99.90
14099;DHT22;7126;48.458;7.930;2023-04-05T04:01:06;3.20;99.90
14099;DHT22;7126;48.458;7.930;2023-04-05T04:03:32;3.10;99.90
14099;DHT22;7126;48.458;7.930;2023-04-05T04:05:58;3.10;99.90
14099;DHT22;7126;48.458;7.930;2023-04-05T04:08:23;3.10;99.90
14099;DHT22;7126;48.458;7.930;2023-04-05T04:10:49;3.10;99.90
14099;DHT22;7126;48.458;7.930;2023-04-05T04:13:15;3.20;99.90
14099;DHT22;7126;48.458;7.930;2023-04-05T04:15:44;3.10;99.90
14099;DHT22;7126;48.458;7.930;2023-04-05T04:18:09;3.10;99.90
14099;DHT22;7126;48.458;7.930;2023-04-05T04:20:36;3.10;99.90
14099;DHT22;7126;48.458;7.930;2023-04-05T04:23:03;3.10;99.90
14099;DHT22;7126;48.458;7.930;2023-04-05T04:25:29;3.10;99.90
14099;DHT22;7126;48.458;7.930;2023-04-05T04:27:55;3.10;99.90
14099;DHT22;7126;48.458;7.930;2023-04-05T04:30:21;3.10;99.90
14099;DHT22;7126;48.458;7.930;2023-04-05T04:32:47;3.10;99.90
14099;DHT22;7126;48.458;7.930;2023-04-05T04:35:18;3.00;99.90
14099;DHT22;7126;48.458;7.930;2023-04-05T04:37:52;3.00;99.90
14099;DHT22;7126;48.458;7.930;2023-04-05T04:40:19;3.00;99.90
14099;DHT22;7126;48.458;7.930;2023-04-05T04:42:45;3.00;99.90
14099;DHT22;7126;48.458;7.930;2023-04-05T04:45:13;3.10;99.90
14099;DHT22;7126;48.458;7.930;2023-04-05T04:47:41;3.00;99.90
14099;DHT22;7126;48.458;7.930;2023-04-05T04:50:07;3.00;99.90
14099;DHT22;7126;48.458;7.930;2023-04-05T04:52:34;2.90;99.90
14099;DHT22;7126;48.458;7.930;2023-04-05T04:55:00;2.80;99.90
14099;DHT22;7126;48.458;7.930;2023-04-05T04:57:27;2.80;99.90
14099;DHT22;7126;48.458;7.930;2023-04-05T04:59:53;2.80;99.90
14099;DHT22;7126;48.458;7.930;2023-04-05T05:02:25;2.70;99.90
14099;DHT22;7126;48.458;7.930;2023-04-05T05:04:51;2.60;99.90
14099;DHT22;7126;48.458;7.930;2023-04-05T05:07:18;2.60;99.90
14099;DHT22;7126;48.458;7.930;2023-04-05T05:09:43;2.60;99.90
14099;DHT22;7126;48.458;7.930;2023-04-05T05:12:10;2.60;99.90
14099;DHT22;7126;48.458;7.930;2023-04-05T05:14:36;2.60;99.90
14099;DHT22;7126;48.458;7.930;2023-04-05T05:17:02;2.70;99.90
14099;DHT22;7126;48.458;7.930;2023-04-05T05:19:29;2.60;99.90
14099;DHT22;7126;48.458;7.930;2023-04-05T05:21:56;2.60;99.90
14099;DHT22;7126;48.458;7.930;2023-04-05T05:24:21;2.60;99.90
14099;DHT22;7126;48.458;7.930;2023-04-05T05:26:47;2.70;99.90
14099;DHT22;7126;48.458;7.930;2023-04-05T05:29:12;2.60;99.90
14099;DHT22;7126;48.458;7.930;2023-04-05T05:31:38;2.60;99.90
14099;DHT22;7126;48.458;7.930;2023-04-05T05:34:04;2.60;99.90
14099;DHT22;7126;48.458;7.930;2023-04-05T05:36:31;2.70;99.90
14099;DHT22;7126;48.458;7.930;2023-04-05T05:38:57;2.60;99.90
14099;DHT22;7126;48.458;7.930;2023-04-05T05:41:22;2.60;99.90
14099;DHT22;7126;48.458;7.930;2023-04-05T05:43:48;2.50;99.90
14099;DHT22;7126;48.458;7.930;2023-04-05T05:46:13;2.50;99.90
14099;DHT22;7126;48.458;7.930;2023-04-05T05:48:40;2.40;99.90
14099;DHT22;7126;48.458;7.930;2023-04-05T05:51:06;2.40;99.90
14099;DHT22;7126;48.458;7.930;2023-04-05T05:53:35;2.50;99.90
14099;DHT22;7126;48.458;7.930;2023-04-05T05:56:01;2.50;99.90
14099;DHT22;7126;48.458;7.930;2023-04-05T05:58:27;2.50;99.90
14099;DHT22;7126;48.458;7.930;2023-04-05T06:00:53;2.60;99.90
14099;DHT22;7126;48.458;7.930;2023-04-05T06:03:21;2.60;99.90
14099;DHT22;7126;48.458;7.930;2023-04-05T06:05:55;2.60;99.90
14099;DHT22;7126;48.458;7.930;2023-04-05T06:08:22;2.70;99.90
14099;DHT22;7126;48.458;7.930;2023-04-05T06:10:49;2.70;99.90
14099;DHT22;7126;48.458;7.930;2023-04-05T06:13:15;2.90;99.90
14099;DHT22;7126;48.458;7.930;2023-04-05T06:15:41;3.00;99.90
14099;DHT22;7126;48.458;7.930;2023-04-05T06:18:07;3.10;99.90
14099;DHT22;7126;48.458;7.930;2023-04-05T06:20:33;3.20;99.90
14099;DHT22;7126;48.458;7.930;2023-04-05T06:23:01;3.20;99.90
14099;DHT22;7126;48.458;7.930;2023-04-05T06:25:27;3.30;99.90
14099;DHT22;7126;48.458;7.930;2023-04-05T06:27:52;3.30;99.90
14099;DHT22;7126;48.458;7.930;2023-04-05T06:30:18;3.30;99.90
14099;DHT22;7126;48.458;7.930;2023-04-05T06:32:43;3.40;99.90
14099;DHT22;7126;48.458;7.930;2023-04-05T06:35:09;3.40;99.90
14099;DHT22;7126;48.458;7.930;2023-04-05T06:37:35;3.50;99.90
14099;DHT22;7126;48.458;7.930;2023-04-05T06:40:00;3.50;99.90
14099;DHT22;7126;48.458;7.930;2023-04-05T06:42:26;3.60;99.90
14099;DHT22;7126;48.458;7.930;2023-04-05T06:44:51;3.60;99.90
14099;DHT22;7126;48.458;7.930;2023-04-05T06:47:17;3.70;99.90
14099;DHT22;7126;48.458;7.930;2023-04-05T06:49:42;3.80;99.90
14099;DHT22;7126;48.458;7.930;2023-04-05T06:52:08;3.90;99.90
14099;DHT22;7126;48.458;7.930;2023-04-05T06:54:36;3.90;99.90
14099;DHT22;7126;48.458;7.930;2023-04-05T06:57:01;4.00;99.90
14099;DHT22;7126;48.458;7.930;2023-04-05T06:59:28;4.00;99.90
14099;DHT22;7126;48.458;7.930;2023-04-05T07:01:54;4.10;99.90
14099;DHT22;7126;48.458;7.930;2023-04-05T07:04:20;4.10;99.90
14099;DHT22;7126;48.458;7.930;2023-04-05T07:06:46;4.20;99.90
14099;DHT22;7126;48.458;7.930;2023-04-05T07:09:11;4.20;99.90
14099;DHT22;7126;48.458;7.930;2023-04-05T07:11:37;4.30;99.90
14099;DHT22;7126;48.458;7.930;2023-04-05T07:14:04;4.40;99.90
14099;DHT22;7126;48.458;7.930;2023-04-05T07:16:30;4.50;99.90
14099;DHT22;7126;48.458;7.930;2023-04-05T07:18:56;4.50;99.90
14099;DHT22;7126;48.458;7.930;2023-04-05T07:21:22;4.60;99.90
14099;DHT22;7126;48.458;7.930;2023-04-05T07:23:48;4.70;99.90
14099;DHT22;7126;48.458;7.930;2023-04-05T07:26:13;4.70;99.90
14099;DHT22;7126;48.458;7.930;2023-04-05T07:28:39;4.70;99.90
14099;DHT22;7126;48.458;7.930;2023-04-05T07:31:05;4.80;99.90
14099;DHT22;7126;48.458;7.930;2023-04-05T07:33:32;4.80;99.90
14099;DHT22;7126;48.458;7.930;2023-04-05T07:35:58;4.90;99.90
14099;DHT22;7126;48.458;7.930;2023-04-05T07:38:24;5.00;99.90
14099;DHT22;7126;48.458;7.930;2023-04-05T07:40:50;5.20;99.90
14099;DHT22;7126;48.458;7.930;2023-04-05T07:43:17;5.20;99.90
14099;DHT22;7126;48.458;7.930;2023-04-05T07:45:43;5.20;99.90
14099;DHT22;7126;48.458;7.930;2023-04-05T07:48:09;5.20;99.90
14099;DHT22;7126;48.458;7.930;2023-04-05T07:50:34;5.30;99.90
14099;DHT22;7126;48.458;7.930;2023-04-05T07:53:01;5.40;99.90
14099;DHT22;7126;48.458;7.930;2023-04-05T07:55:26;5.60;99.90
14099;DHT22;7126;48.458;7.930;2023-04-05T07:57:55;5.60;99.90
14099;DHT22;7126;48.458;7.930;2023-04-05T08:00:22;5.60;99.90
14099;DHT22;7126;48.458;7.930;2023-04-05T08:02:47;5.60;99.90
14099;DHT22;7126;48.458;7.930;2023-04-05T08:05:13;5.70;99.90
14099;DHT22;7126;48.458;7.930;2023-04-05T08:07:38;5.90;99.90
14099;DHT22;7126;48.458;7.930;2023-04-05T08:10:04;6.00;99.90
14099;DHT22;7126;48.458;7.930;2023-04-05T08:12:33;6.20;99.90
14099;DHT22;7126;48.458;7.930;2023-04-05T08:14:58;6.30;99.90
14099;DHT22;7126;48.458;7.930;2023-04-05T08:17:24;6.40;99.90
14099;DHT22;7126;48.458;7.930;2023-04-05T08:19:52;6.50;99.90
14099;DHT22;7126;48.458;7.930;2023-04-05T08:22:18;6.60;99.90
14099;DHT22;7126;48.458;7.930;2023-04-05T08:24:44;6.70;99.90
14099;DHT22;7126;48.458;7.930;2023-04-05T08:27:10;6.90;99.90
14099;DHT22;7126;48.458;7.930;2023-04-05T08:29:36;7.00;99.90
14099;DHT22;7126;48.458;7.930;2023-04-05T08:32:01;7.20;99.90
14099;DHT22;7126;48.458;7.930;2023-04-05T08:34:27;7.40;99.90
14099;DHT22;7126;48.458;7.930;2023-04-05T08:36:57;7.50;99.90
14099;DHT22;7126;48.458;7.930;2023-04-05T08:39:23;7.70;99.90
14099;DHT22;7126;48.458;7.930;2023-04-05T08:41:56;7.70;99.90
14099;DHT22;7126;48.458;7.930;2023-04-05T08:44:25;7.80;99.90
14099;DHT22;7126;48.458;7.930;2023-04-05T08:46:55;8.00;99.90
14099;DHT22;7126;48.458;7.930;2023-04-05T08:49:22;8.00;99.90
14099;DHT22;7126;48.458;7.930;2023-04-05T08:51:48;8.20;99.90
14099;DHT22;7126;48.458;7.930;2023-04-05T08:54:13;8.30;99.90
14099;DHT22;7126;48.458;7.930;2023-04-05T08:56:41;8.40;99.90
14099;DHT22;7126;48.458;7.930;2023-04-05T08:59:09;8.50;99.90
14099;DHT22;7126;48.458;7.930;2023-04-05T09:01:41;8.60;99.90
14099;DHT22;7126;48.458;7.930;2023-04-05T09:04:17;8.60;99.90
14099;DHT22;7126;48.458;7.930;2023-04-05T09:06:44;8.70;99.90
14099;DHT22;7126;48.458;7.930;2023-04-05T09:09:10;8.80;99.90
14099;DHT22;7126;48.458;7.930;2023-04-05T09:11:37;8.90;99.90
14099;DHT22;7126;48.458;7.930;2023-04-05T09:14:04;9.00;99.90
14099;DHT22;7126;48.458;7.930;2023-04-05T09:16:32;9.10;99.90
14099;DHT22;7126;48.458;7.930;2023-04-05T09:19:01;9.20;99.90
14099;DHT22;7126;48.458;7.930;2023-04-05T09:21:27;9.30;99.90
14099;DHT22;7126;48.458;7.930;2023-04-05T09:23:54;9.50;99.90
14099;DHT22;7126;48.458;7.930;2023-04-05T09:26:24;9.60;99.90
14099;DHT22;7126;48.458;7.930;2023-04-05T09:28:50;9.70;99.90
14099;DHT22;7126;48.458;7.930;2023-04-05T09:31:32;9.80;99.90
14099;DHT22;7126;48.458;7.930;2023-04-05T09:33:59;10.00;99.90
14099;DHT22;7126;48.458;7.930;2023-04-05T09:36:27;10.10;99.90
14099;DHT22;7126;48.458;7.930;2023-04-05T09:38:53;10.30;99.90
14099;DHT22;7126;48.458;7.930;2023-04-05T09:41:28;10.40;99.90
14099;DHT22;7126;48.458;7.930;2023-04-05T09:43:54;10.40;99.90
14099;DHT22;7126;48.458;7.930;2023-04-05T09:46:35;10.60;99.90
14099;DHT22;7126;48.458;7.930;2023-04-05T09:49:04;10.70;99.90
14099;DHT22;7126;48.458;7.930;2023-04-05T09:51:37;10.80;99.90
14099;DHT22;7126;48.458;7.930;2023-04-05T09:54:08;10.90;99.90
14099;DHT22;7126;48.458;7.930;2023-04-05T09:56:38;11.00;99.90
14099;DHT22;7126;48.458;7.930;2023-04-05T09:59:08;11.00;99.90
14099;DHT22;7126;48.458;7.930;2023-04-05T10:01:35;11.10;99.90
14099;DHT22;7126;48.458;7.930;2023-04-05T10:04:01;11.20;99.90
14099;DHT22;7126;48.458;7.930;2023-04-05T10:06:38;11.30;99.90
14099;DHT22;7126;48.458;7.930;2023-04-05T10:09:04;11.40;99.90
14099;DHT22;7126;48.458;7.930;2023-04-05T10:11:31;11.50;99.90
14099;DHT22;7126;48.458;7.930;2023-04-05T10:14:00;11.50;99.90
14099;DHT22;7126;48.458;7.930;2023-04-05T10:16:31;11.70;99.90
14099;DHT22;7126;48.458;7.930;2023-04-05T10:18:57;11.70;99.90
14099;DHT22;7126;48.458;7.930;2023-04-05T10:21:28;11.80;98.70
14099;DHT22;7126;48.458;7.930;2023-04-05T10:24:18;11.90;98.40
14099;DHT22;7126;48.458;7.930;2023-04-05T10:27:06;11.90;96.50
14099;DHT22;7126;48.458;7.930;2023-04-05T10:30:04;12.00;97.70
14099;DHT22;7126;48.458;7.930;2023-04-05T10:41:20;12.40;93.90
14099;DHT22;7126;48.458;7.930;2023-04-05T10:43:48;12.60;96.30
14099;DHT22;7126;48.458;7.930;2023-04-05T10:46:19;12.70;95.70
14099;DHT22;7126;48.458;7.930;2023-04-05T10:49:03;12.80;93.90
14099;DHT22;7126;48.458;7.930;2023-04-05T10:51:32;12.60;95.10
14099;DHT22;7126;48.458;7.930;2023-04-05T10:53:59;12.80;94.60
14099;DHT22;7126;48.458;7.930;2023-04-05T10:56:25;12.80;93.50
14099;DHT22;7126;48.458;7.930;2023-04-05T10:58:52;12.80;93.00
14099;DHT22;7126;48.458;7.930;2023-04-05T11:01:19;12.80;93.80
14099;DHT22;7126;48.458;7.930;2023-04-05T11:03:49;13.00;94.80
14099;DHT22;7126;48.458;7.930;2023-04-05T11:06:31;13.10;95.00
14099;DHT22;7126;48.458;7.930;2023-04-05T11:09:20;13.30;95.10
14099;DHT22;7126;48.458;7.930;2023-04-05T11:11:46;13.50;95.50
14099;DHT22;7126;48.458;7.930;2023-04-05T11:14:35;13.70;94.90
14099;DHT22;7126;48.458;7.930;2023-04-05T11:17:01;13.80;94.40
14099;DHT22;7126;48.458;7.930;2023-04-05T11:22:12;13.90;93.80
14099;DHT22;7126;48.458;7.930;2023-04-05T11:24:52;14.00;92.70
14099;DHT22;7126;48.458;7.930;2023-04-05T11:27:39;14.00;93.30
14099;DHT22;7126;48.458;7.930;2023-04-05T11:30:47;14.20;92.00
14099;DHT22;7126;48.458;7.930;2023-04-05T11:33:35;14.30;91.50
14099;DHT22;7126;48.458;7.930;2023-04-05T11:36:01;14.40;93.30
14099;DHT22;7126;48.458;7.930;2023-04-05T11:38:27;14.60;93.20
14099;DHT22;7126;48.458;7.930;2023-04-05T11:41:25;14.80;92.30
14099;DHT22;7126;48.458;7.930;2023-04-05T11:43:50;14.80;92.10
14099;DHT22;7126;48.458;7.930;2023-04-05T11:46:16;15.00;91.60
14099;DHT22;7126;48.458;7.930;2023-04-05T11:48:48;15.10;92.80
14099;DHT22;7126;48.458;7.930;2023-04-05T11:51:15;15.20;92.40
14099;DHT22;7126;48.458;7.930;2023-04-05T11:53:45;15.30;91.10
14099;DHT22;7126;48.458;7.930;2023-04-05T11:56:11;15.40;91.30
14099;DHT22;7126;48.458;7.930;2023-04-05T11:58:40;15.40;88.30
14099;DHT22;7126;48.458;7.930;2023-04-05T12:01:06;15.30;88.90
14099;DHT22;7126;48.458;7.930;2023-04-05T12:03:33;15.20;90.10
14099;DHT22;7126;48.458;7.930;2023-04-05T12:06:01;15.40;90.20
14099;DHT22;7126;48.458;7.930;2023-04-05T12:08:59;15.50;88.30
14099;DHT22;7126;48.458;7.930;2023-04-05T12:11:26;15.70;88.70
14099;DHT22;7126;48.458;7.930;2023-04-05T12:14:01;15.60;84.30
14099;DHT22;7126;48.458;7.930;2023-04-05T12:16:27;15.50;88.80
14099;DHT22;7126;48.458;7.930;2023-04-05T12:18:58;15.70;87.70
14099;DHT22;7126;48.458;7.930;2023-04-05T12:21:24;15.80;89.50
14099;DHT22;7126;48.458;7.930;2023-04-05T12:23:51;16.00;90.20
14099;DHT22;7126;48.458;7.930;2023-04-05T12:26:17;16.20;88.80
14099;DHT22;7126;48.458;7.930;2023-04-05T12:28:53;16.30;86.40
14099;DHT22;7126;48.458;7.930;2023-04-05T12:34:05;15.80;81.60
14099;DHT22;7126;48.458;7.930;2023-04-05T12:36:31;15.40;88.80
14099;DHT22;7126;48.458;7.930;2023-04-05T12:38:57;15.70;86.90
14099;DHT22;7126;48.458;7.930;2023-04-05T12:41:27;16.00;86.20
14099;DHT22;7126;48.458;7.930;2023-04-05T12:43:54;16.20;85.40
14099;DHT22;7126;48.458;7.930;2023-04-05T12:46:42;16.30;85.40
14099;DHT22;7126;48.458;7.930;2023-04-05T12:49:13;16.70;86.90
14099;DHT22;7126;48.458;7.930;2023-04-05T12:51:48;16.80;84.10
14099;DHT22;7126;48.458;7.930;2023-04-05T12:54:19;17.00;83.70
14099;DHT22;7126;48.458;7.930;2023-04-05T12:56:46;17.10;82.60
14099;DHT22;7126;48.458;7.930;2023-04-05T12:59:13;17.00;80.20
14099;DHT22;7126;48.458;7.930;2023-04-05T13:01:39;17.00;80.70
14099;DHT22;7126;48.458;7.930;2023-04-05T13:04:05;16.90;78.00
14099;DHT22;7126;48.458;7.930;2023-04-05T13:06:30;16.70;81.00
14099;DHT22;7126;48.458;7.930;2023-04-05T13:08:56;16.90;82.10
14099;DHT22;7126;48.458;7.930;2023-04-05T13:11:22;17.00;82.50
14099;DHT22;7126;48.458;7.930;2023-04-05T13:13:48;17.00;83.00
14099;DHT22;7126;48.458;7.930;2023-04-05T13:16:14;17.10;83.40
14099;DHT22;7126;48.458;7.930;2023-04-05T13:18:40;17.20;79.90
14099;DHT22;7126;48.458;7.930;2023-04-05T13:21:06;17.30;80.50
14099;DHT22;7126;48.458;7.930;2023-04-05T13:23:34;17.30;79.20
14099;DHT22;7126;48.458;7.930;2023-04-05T13:25:59;17.30;79.10
14099;DHT22;7126;48.458;7.930;2023-04-05T13:28:25;17.50;80.90
14099;DHT22;7126;48.458;7.930;2023-04-05T13:30:51;17.40;79.90
14099;DHT22;7126;48.458;7.930;2023-04-05T13:33:17;17.40;86.00
14099;DHT22;7126;48.458;7.930;2023-04-05T13:35:43;17.30;85.20
14099;DHT22;7126;48.458;7.930;2023-04-05T13:38:09;17.30;82.50
14099;DHT22;7126;48.458;7.930;2023-04-05T13:40:34;17.40;79.40
14099;DHT22;7126;48.458;7.930;2023-04-05T13:43:00;16.80;77.10
14099;DHT22;7126;48.458;7.930;2023-04-05T13:45:26;16.80;82.50
14099;DHT22;7126;48.458;7.930;2023-04-05T13:47:52;17.00;82.00
14099;DHT22;7126;48.458;7.930;2023-04-05T13:50:18;17.10;80.80
14099;DHT22;7126;48.458;7.930;2023-04-05T13:52:44;17.20;81.80
14099;DHT22;7126;48.458;7.930;2023-04-05T13:55:09;17.20;80.20
14099;DHT22;7126;48.458;7.930;2023-04-05T13:57:35;17.30;77.30
14099;DHT22;7126;48.458;7.930;2023-04-05T14:00:01;17.00;74.60
14099;DHT22;7126;48.458;7.930;2023-04-05T14:02:26;16.50;77.30
14099;DHT22;7126;48.458;7.930;2023-04-05T14:04:52;16.60;79.90
14099;DHT22;7126;48.458;7.930;2023-04-05T14:07:19;16.80;81.00
14099;DHT22;7126;48.458;7.930;2023-04-05T14:09:45;17.00;80.60
14099;DHT22;7126;48.458;7.930;2023-04-05T14:12:11;17.10;81.40
14099;DHT22;7126;48.458;7.930;2023-04-05T14:14:37;17.10;79.70
14099;DHT22;7126;48.458;7.930;2023-04-05T14:17:03;17.10;79.60
14099;DHT22;7126;48.458;7.930;2023-04-05T14:19:28;17.20;79.50
14099;DHT22;7126;48.458;7.930;2023-04-05T14:21:54;17.20;79.10
14099;DHT22;7126;48.458;7.930;2023-04-05T14:24:20;17.20;78.00
14099;DHT22;7126;48.458;7.930;2023-04-05T14:26:46;17.10;79.40
14099;DHT22;7126;48.458;7.930;2023-04-05T14:29:14;17.10;78.90
14099;DHT22;7126;48.458;7.930;2023-04-05T14:31:41;17.00;75.60
14099;DHT22;7126;48.458;7.930;2023-04-05T14:34:06;16.90;77.90
14099;DHT22;7126;48.458;7.930;2023-04-05T14:36:32;16.80;77.10
14099;DHT22;7126;48.458;7.930;2023-04-05T14:38:57;16.90;78.20
14099;DHT22;7126;48.458;7.930;2023-04-05T14:41:23;16.70;74.00
14099;DHT22;7126;48.458;7.930;2023-04-05T14:43:49;16.40;79.10
14099;DHT22;7126;48.458;7.930;2023-04-05T14:46:15;16.40;78.90
14099;DHT22;7126;48.458;7.930;2023-04-05T14:48:40;16.50;78.60
14099;DHT22;7126;48.458;7.930;2023-04-05T14:51:06;16.60;79.40
14099;DHT22;7126;48.458;7.930;2023-04-05T14:53:31;16.70;79.50
14099;DHT22;7126;48.458;7.930;2023-04-05T14:55:57;16.80;78.30
14099;DHT22;7126;48.458;7.930;2023-04-05T14:58:23;16.70;78.20
14099;DHT22;7126;48.458;7.930;2023-04-05T15:00:49;16.70;76.20
14099;DHT22;7126;48.458;7.930;2023-04-05T15:03:15;16.40;77.60
14099;DHT22;7126;48.458;7.930;2023-04-05T15:05:44;16.40;77.90
14099;DHT22;7126;48.458;7.930;2023-04-05T15:08:10;16.30;80.30
14099;DHT22;7126;48.458;7.930;2023-04-05T15:10:35;16.40;82.40
14099;DHT22;7126;48.458;7.930;2023-04-05T15:13:03;16.40;80.50
14099;DHT22;7126;48.458;7.930;2023-04-05T15:15:28;16.40;79.90
14099;DHT22;7126;48.458;7.930;2023-04-05T15:17:54;16.30;79.90
14099;DHT22;7126;48.458;7.930;2023-04-05T15:20:19;16.40;80.50
14099;DHT22;7126;48.458;7.930;2023-04-05T15:22:45;16.40;80.40
14099;DHT22;7126;48.458;7.930;2023-04-05T15:25:11;16.40;79.80
14099;DHT22;7126;48.458;7.930;2023-04-05T15:27:36;16.20;78.10
14099;DHT22;7126;48.458;7.930;2023-04-05T15:30:02;16.10;81.70
14099;DHT22;7126;48.458;7.930;2023-04-05T15:32:28;15.80;78.60
14099;DHT22;7126;48.458;7.930;2023-04-05T15:35:00;15.80;82.20
14099;DHT22;7126;48.458;7.930;2023-04-05T15:37:27;15.90;80.50
14099;DHT22;7126;48.458;7.930;2023-04-05T15:39:53;15.70;78.80
14099;DHT22;7126;48.458;7.930;2023-04-05T15:42:19;15.50;83.30
14099;DHT22;7126;48.458;7.930;2023-04-05T15:44:46;15.50;83.30
14099;DHT22;7126;48.458;7.930;2023-04-05T15:47:12;15.50;82.30
14099;DHT22;7126;48.458;7.930;2023-04-05T15:49:38;15.50;83.30
14099;DHT22;7126;48.458;7.930;2023-04-05T15:52:03;15.50;83.40
14099;DHT22;7126;48.458;7.930;2023-04-05T15:54:29;15.50;83.70
14099;DHT22;7126;48.458;7.930;2023-04-05T15:56:55;15.60;84.50
14099;DHT22;7126;48.458;7.930;2023-04-05T15:59:22;15.50;83.30
14099;DHT22;7126;48.458;7.930;2023-04-05T16:01:48;15.40;81.80
14099;DHT22;7126;48.458;7.930;2023-04-05T16:04:14;15.20;85.00
14099;DHT22;7126;48.458;7.930;2023-04-05T16:06:40;15.20;85.60
14099;DHT22;7126;48.458;7.930;2023-04-05T16:09:06;15.20;85.20
14099;DHT22;7126;48.458;7.930;2023-04-05T16:11:31;15.10;85.70
14099;DHT22;7126;48.458;7.930;2023-04-05T16:13:57;14.90;84.70
14099;DHT22;7126;48.458;7.930;2023-04-05T16:16:23;14.90;86.90
14099;DHT22;7126;48.458;7.930;2023-04-05T16:18:49;14.90;86.20